createdAt,value
2022-11-17T00:01:20.786Z,12.40
2022-11-17T00:03:48.993Z,4.87
2022-11-17T00:06:16.408Z,4.33
2022-11-17T00:08:43.490Z,5.03
2022-11-17T00:11:10.572Z,7.97
2022-11-17T00:13:55.986Z,4.77
2022-11-17T00:16:23.030Z,4.30
2022-11-17T00:19:10.409Z,6.23
2022-11-17T00:21:37.441Z,6.43
2022-11-17T00:24:04.485Z,6.13
2022-11-17T00:26:32.763Z,5.37
2022-11-17T00:29:05.892Z,4.60
2022-11-17T00:31:52.460Z,5.10
2022-11-17T00:34:23.553Z,5.27
2022-11-17T00:36:51.492Z,4.80
2022-11-17T00:39:20.230Z,5.33
2022-11-17T00:41:47.562Z,5.63
2022-11-17T00:44:14.704Z,5.10
2022-11-17T00:46:42.123Z,5.47
2022-11-17T00:49:10.081Z,4.20
2022-11-17T00:51:37.338Z,5.47
2022-11-17T00:54:05.395Z,5.23
2022-11-17T00:56:32.410Z,6.07
2022-11-17T00:58:59.767Z,4.63
2022-11-17T01:01:27.245Z,5.53
2022-11-17T01:04:03.754Z,4.90
2022-11-17T01:06:32.670Z,5.33
2022-11-17T01:09:04.739Z,4.40
2022-11-17T01:11:31.942Z,4.23
2022-11-17T01:13:59.661Z,3.87
2022-11-17T01:16:27.280Z,5.33
2022-11-17T01:18:54.603Z,4.83
2022-11-17T01:21:23.148Z,7.80
2022-11-17T01:23:51.898Z,5.13
2022-11-17T01:29:47.937Z,8.73
2022-11-17T01:32:14.988Z,5.47
2022-11-17T01:34:41.927Z,4.50
2022-11-17T01:37:21.292Z,3.27
2022-11-17T01:39:49.253Z,3.87
2022-11-17T01:42:26.395Z,2.70
2022-11-17T01:44:59.669Z,3.20
2022-11-17T01:47:58.936Z,2.83
2022-11-17T01:50:32.541Z,3.43
2022-11-17T01:53:00.292Z,3.17
2022-11-17T01:55:31.443Z,2.73
2022-11-17T01:58:00.818Z,2.67
2022-11-17T02:00:27.820Z,3.97
2022-11-17T02:02:54.600Z,2.90
2022-11-17T02:05:30.924Z,2.83
2022-11-17T02:07:59.907Z,2.67
2022-11-17T02:10:27.409Z,2.53
2022-11-17T02:12:55.364Z,2.60
2022-11-17T02:15:22.525Z,4.50
2022-11-17T02:17:49.669Z,2.60
2022-11-17T02:20:30.882Z,2.03
2022-11-17T02:23:10.116Z,3.47
2022-11-17T02:25:49.253Z,3.27
2022-11-17T02:28:30.207Z,3.93
2022-11-17T02:31:06.236Z,2.50
2022-11-17T02:33:36.140Z,3.60
2022-11-17T02:36:03.185Z,3.70
2022-11-17T02:38:32.752Z,2.47
2022-11-17T02:41:12.860Z,3.33
2022-11-17T02:44:06.749Z,3.13
2022-11-17T02:46:37.546Z,2.77
2022-11-17T02:49:07.356Z,2.67
2022-11-17T02:51:35.368Z,2.30
2022-11-17T02:54:02.400Z,2.83
2022-11-17T02:56:29.345Z,1.73
2022-11-17T02:58:58.630Z,2.43
2022-11-17T03:01:28.370Z,1.93
2022-11-17T03:03:55.152Z,2.43
2022-11-17T03:06:36.239Z,1.80
2022-11-17T03:09:13.636Z,2.43
2022-11-17T03:11:46.564Z,2.70
2022-11-17T03:14:19.229Z,3.23
2022-11-17T03:16:57.817Z,2.13
2022-11-17T03:19:41.716Z,1.40
2022-11-17T03:22:37.920Z,3.03
2022-11-17T03:25:07.107Z,4.57
2022-11-17T03:27:42.956Z,2.13
2022-11-17T03:30:10.512Z,6.20
2022-11-17T03:32:39.110Z,3.80
2022-11-17T03:35:10.274Z,2.87
2022-11-17T03:37:38.709Z,2.30
2022-11-17T03:40:08.766Z,2.10
2022-11-17T03:42:37.823Z,3.30
2022-11-17T03:45:07.031Z,2.33
2022-11-17T03:47:34.479Z,2.90
2022-11-17T03:50:08.179Z,2.50
2022-11-17T03:52:36.269Z,2.93
2022-11-17T03:55:03.284Z,4.13
2022-11-17T03:57:54.673Z,2.77
2022-11-17T04:00:21.546Z,3.33
2022-11-17T04:02:49.156Z,3.63
2022-11-17T04:05:18.134Z,4.13
2022-11-17T04:07:46.195Z,3.00
2022-11-17T04:10:14.128Z,4.13
2022-11-17T04:12:59.753Z,2.63
2022-11-17T04:15:45.758Z,2.73
2022-11-17T04:18:12.965Z,5.10
2022-11-17T04:20:39.893Z,3.43
2022-11-17T04:23:08.390Z,3.27
2022-11-17T04:25:56.909Z,4.53
2022-11-17T04:28:39.593Z,3.33
2022-11-17T04:31:08.030Z,2.90
2022-11-17T04:33:35.684Z,3.37
2022-11-17T04:36:03.163Z,4.20
2022-11-17T04:38:30.123Z,3.53
2022-11-17T04:41:22.610Z,2.80
2022-11-17T04:43:49.506Z,2.43
2022-11-17T04:46:16.728Z,3.23
2022-11-17T04:48:43.807Z,2.57
2022-11-17T04:51:11.228Z,3.07
2022-11-17T04:53:38.321Z,2.43
2022-11-17T04:56:05.780Z,2.63
2022-11-17T04:58:32.585Z,4.70
2022-11-17T05:01:12.622Z,3.27
2022-11-17T05:03:46.934Z,3.47
2022-11-17T05:06:18.236Z,2.53
2022-11-17T05:08:45.407Z,3.10
2022-11-17T05:11:31.911Z,2.90
2022-11-17T05:13:59.088Z,5.63
2022-11-17T05:16:44.571Z,3.90
2022-11-17T05:19:12.950Z,2.73
2022-11-17T05:21:40.721Z,3.57
2022-11-17T05:24:08.900Z,4.07
2022-11-17T05:26:36.496Z,4.50
2022-11-17T05:29:04.136Z,4.47
2022-11-17T05:31:31.067Z,4.33
2022-11-17T05:33:57.867Z,3.67
2022-11-17T05:36:25.442Z,3.33
2022-11-17T05:38:52.833Z,4.20
2022-11-17T05:41:19.871Z,3.87
2022-11-17T05:43:46.765Z,1.97
2022-11-17T05:46:13.660Z,1.53
2022-11-17T05:48:40.427Z,2.37
2022-11-17T05:51:07.331Z,2.20
2022-11-17T05:53:34.521Z,1.90
2022-11-17T05:56:14.279Z,2.10
2022-11-17T05:58:44.336Z,1.60
2022-11-17T06:01:13.363Z,3.50
2022-11-17T06:03:42.329Z,2.97
2022-11-17T06:06:09.683Z,3.00
2022-11-17T06:08:36.873Z,4.07
2022-11-17T06:11:03.684Z,2.97
2022-11-17T06:13:30.582Z,3.50
2022-11-17T06:15:58.388Z,10.73
2022-11-17T06:18:31.159Z,2.47
2022-11-17T06:20:58.102Z,4.63
2022-11-17T06:23:27.652Z,3.50
2022-11-17T06:25:54.700Z,3.87
2022-11-17T06:28:22.289Z,4.77
2022-11-17T06:30:49.371Z,5.67
2022-11-17T06:33:17.739Z,4.87
2022-11-17T06:35:45.703Z,3.77
2022-11-17T06:38:12.579Z,3.87
2022-11-17T06:40:39.410Z,2.93
2022-11-17T06:43:12.603Z,5.17
2022-11-17T06:45:43.865Z,4.30
2022-11-17T06:48:11.472Z,4.20
2022-11-17T06:50:38.408Z,6.93
2022-11-17T06:53:06.512Z,6.97
2022-11-17T06:55:34.713Z,6.17
2022-11-17T06:58:02.609Z,3.63
2022-11-17T07:00:29.956Z,11.07
2022-11-17T07:03:04.071Z,4.80
2022-11-17T07:05:31.560Z,2.30
2022-11-17T07:07:59.297Z,2.73
2022-11-17T07:10:26.703Z,2.03
2022-11-17T07:12:53.571Z,2.17
2022-11-17T07:15:20.417Z,2.20
2022-11-17T07:17:47.461Z,4.40
2022-11-17T07:20:14.788Z,33.20
2022-11-17T07:22:42.269Z,2.60
2022-11-17T07:25:09.438Z,3.00
2022-11-17T07:27:36.272Z,3.70
2022-11-17T07:30:04.260Z,3.30
2022-11-17T07:32:32.876Z,3.13
2022-11-17T07:35:02.136Z,3.67
2022-11-17T07:37:32.267Z,4.70
2022-11-17T07:39:59.665Z,2.80
2022-11-17T07:42:26.904Z,3.67
2022-11-17T07:44:54.214Z,6.73
2022-11-17T07:47:21.082Z,7.60
2022-11-17T07:49:47.909Z,4.57
2022-11-17T07:52:14.789Z,3.40
2022-11-17T07:54:41.608Z,6.30
2022-11-17T07:57:08.448Z,6.40
2022-11-17T07:59:35.264Z,4.87
2022-11-17T08:02:02.124Z,5.30
2022-11-17T08:04:29.096Z,6.07
2022-11-17T08:06:55.964Z,6.37
2022-11-17T08:09:22.787Z,5.03
2022-11-17T08:11:52.014Z,8.10
2022-11-17T08:14:18.788Z,5.90
2022-11-17T08:16:45.660Z,7.63
2022-11-17T08:19:12.602Z,6.37
2022-11-17T08:21:41.196Z,11.07
2022-11-17T08:24:07.998Z,13.27
2022-11-17T08:26:34.858Z,4.37
2022-11-17T08:29:02.163Z,9.13
2022-11-17T08:31:28.930Z,3.97
2022-11-17T08:33:55.882Z,7.63
2022-11-17T08:36:22.694Z,7.03
2022-11-17T08:38:49.490Z,13.23
2022-11-17T08:41:16.405Z,10.40
2022-11-17T08:43:43.248Z,8.63
2022-11-17T08:46:14.076Z,9.03
2022-11-17T08:48:41.074Z,4.57
2022-11-17T08:51:08.758Z,4.60
2022-11-17T08:53:35.787Z,9.73
2022-11-17T08:56:06.232Z,12.03
2022-11-17T08:58:33.167Z,6.40
2022-11-17T09:01:05.185Z,7.27
2022-11-17T09:03:32.480Z,6.03
2022-11-17T09:06:00.408Z,7.43
2022-11-17T09:08:44.894Z,4.53
2022-11-17T09:11:13.257Z,9.23
2022-11-17T09:13:40.515Z,6.03
2022-11-17T09:16:08.821Z,4.13
2022-11-17T09:18:38.578Z,5.33
2022-11-17T09:21:07.373Z,7.70
2022-11-17T09:23:34.923Z,5.57
2022-11-17T09:26:06.519Z,5.70
2022-11-17T09:28:33.964Z,6.30
2022-11-17T09:31:05.971Z,8.87
2022-11-17T09:33:32.888Z,8.87
2022-11-17T09:35:59.857Z,7.23
2022-11-17T09:38:26.679Z,9.20
2022-11-17T09:40:55.371Z,5.13
2022-11-17T09:43:26.916Z,4.93
2022-11-17T09:45:57.074Z,9.70
2022-11-17T09:48:41.236Z,5.53
2022-11-17T09:51:10.947Z,8.00
2022-11-17T09:53:38.162Z,7.80
2022-11-17T09:56:07.620Z,13.67
2022-11-17T09:58:34.840Z,8.60
2022-11-17T10:01:01.971Z,5.13
2022-11-17T10:03:32.587Z,5.30
2022-11-17T10:06:00.897Z,5.80
2022-11-17T10:09:06.313Z,4.80
2022-11-17T10:11:35.254Z,7.37
2022-11-17T10:14:08.199Z,7.60
2022-11-17T10:16:35.859Z,8.33
2022-11-17T10:19:08.854Z,9.33
2022-11-17T10:21:36.636Z,5.50
2022-11-17T10:24:03.543Z,9.53
2022-11-17T10:26:33.688Z,8.87
2022-11-17T10:29:12.248Z,6.60
2022-11-17T10:31:43.199Z,5.77
2022-11-17T10:34:11.468Z,7.30
2022-11-17T10:36:45.025Z,11.83
2022-11-17T10:39:31.829Z,9.07
2022-11-17T10:41:58.717Z,8.67
2022-11-17T10:44:26.523Z,9.47
2022-11-17T10:47:02.990Z,6.57
2022-11-17T10:49:33.484Z,13.47
2022-11-17T10:52:09.681Z,13.93
2022-11-17T10:54:36.605Z,24.20
2022-11-17T10:57:07.140Z,13.83
2022-11-17T10:59:42.643Z,6.10
2022-11-17T11:02:28.688Z,13.27
2022-11-17T11:05:16.002Z,12.93
2022-11-17T11:07:42.928Z,11.27
2022-11-17T11:10:12.469Z,7.83
2022-11-17T11:12:42.192Z,10.03
2022-11-17T11:15:15.632Z,5.27
2022-11-17T11:17:42.645Z,5.37
2022-11-17T11:20:13.554Z,9.70
2022-11-17T11:22:53.857Z,7.70
2022-11-17T11:25:39.418Z,9.00
2022-11-17T11:28:24.655Z,8.20
2022-11-17T11:30:59.528Z,11.40
2022-11-17T11:33:43.353Z,8.07
2022-11-17T11:36:22.107Z,8.10
2022-11-17T11:38:58.120Z,8.13
2022-11-17T11:41:43.492Z,8.83
2022-11-17T11:44:34.466Z,5.80
2022-11-17T11:47:27.160Z,11.33
2022-11-17T11:49:59.164Z,11.50
2022-11-17T11:52:27.954Z,10.80
2022-11-17T11:55:05.842Z,12.50
2022-11-17T11:57:41.068Z,12.37
2022-11-17T12:00:14.936Z,14.70
2022-11-17T12:02:41.892Z,12.27
2022-11-17T12:05:17.173Z,14.93
2022-11-17T12:07:49.532Z,18.77
2022-11-17T12:10:21.196Z,18.40
2022-11-17T12:12:48.273Z,13.47
2022-11-17T12:15:21.120Z,18.23
2022-11-17T12:17:50.885Z,14.73
2022-11-17T12:20:29.743Z,29.80
2022-11-17T12:23:15.550Z,11.37
2022-11-17T12:25:52.138Z,16.03
2022-11-17T12:28:26.445Z,12.70
2022-11-17T12:30:54.892Z,17.47
2022-11-17T12:33:22.040Z,12.60
2022-11-17T12:36:07.816Z,13.37
2022-11-17T12:38:34.872Z,10.30
2022-11-17T12:41:02.000Z,23.67
2022-11-17T12:43:30.210Z,19.80
2022-11-17T12:45:59.931Z,28.50
2022-11-17T12:48:34.851Z,23.53
2022-11-17T12:51:06.423Z,18.97
2022-11-17T12:53:38.468Z,18.17
2022-11-17T12:56:24.023Z,21.07
2022-11-17T12:58:57.158Z,11.93
2022-11-17T13:01:27.502Z,14.53
2022-11-17T13:04:13.451Z,10.40
2022-11-17T13:06:58.270Z,10.80
2022-11-17T13:09:27.116Z,11.83
2022-11-17T13:12:07.232Z,10.07
2022-11-17T13:14:35.261Z,9.23
2022-11-17T13:17:03.091Z,7.90
2022-11-17T13:19:37.611Z,10.80
2022-11-17T13:22:06.704Z,8.73
2022-11-17T13:24:35.444Z,20.03
2022-11-17T13:27:03.408Z,9.27
2022-11-17T13:29:30.363Z,9.97
2022-11-17T13:32:12.873Z,6.47
2022-11-17T13:35:08.880Z,22.47
2022-11-17T13:37:35.838Z,8.80
2022-11-17T13:40:13.223Z,16.50
2022-11-17T13:42:40.302Z,9.10
2022-11-17T13:45:07.501Z,21.73
2022-11-17T13:47:34.499Z,9.63
2022-11-17T13:50:20.199Z,10.90
2022-11-17T13:52:47.531Z,6.90
2022-11-17T13:55:17.985Z,9.67
2022-11-17T13:57:53.919Z,6.90
2022-11-17T14:00:21.054Z,7.57
2022-11-17T14:03:01.303Z,6.27
2022-11-17T14:05:29.567Z,7.17
2022-11-17T14:07:57.587Z,5.80
2022-11-17T14:10:29.308Z,4.87
2022-11-17T14:13:02.255Z,7.33
2022-11-17T14:15:32.025Z,7.27
2022-11-17T14:18:25.378Z,9.20
2022-11-17T14:21:06.905Z,5.60
2022-11-17T14:23:34.345Z,6.57
2022-11-17T14:26:01.283Z,6.70
2022-11-17T14:28:28.304Z,5.43
2022-11-17T14:30:56.069Z,7.30
2022-11-17T14:33:23.589Z,5.73
2022-11-17T14:35:51.841Z,8.57
2022-11-17T14:38:19.772Z,11.90
2022-11-17T14:40:46.809Z,9.97
2022-11-17T14:43:13.791Z,5.60
2022-11-17T14:45:40.607Z,7.47
2022-11-17T14:48:07.577Z,7.90
2022-11-17T14:50:34.655Z,6.70
2022-11-17T14:53:01.510Z,7.03
2022-11-17T14:55:28.410Z,10.63
2022-11-17T14:57:55.304Z,5.90
2022-11-17T15:00:22.307Z,7.80
2022-11-17T15:02:49.660Z,10.30
2022-11-17T15:05:16.510Z,9.13
2022-11-17T15:07:43.826Z,8.03
2022-11-17T15:10:11.267Z,12.73
2022-11-17T15:12:38.245Z,20.80
2022-11-17T15:15:05.252Z,32.77
2022-11-17T15:17:32.176Z,24.87
2022-11-17T15:19:59.177Z,12.23
2022-11-17T15:22:26.441Z,17.07
2022-11-17T15:24:53.452Z,15.57
2022-11-17T15:27:20.231Z,15.10
2022-11-17T15:29:47.235Z,11.50
2022-11-17T15:32:14.071Z,17.40
2022-11-17T15:34:41.012Z,16.27
2022-11-17T15:37:07.993Z,16.20
2022-11-17T15:39:35.049Z,20.42
2022-11-17T15:42:01.894Z,15.80
2022-11-17T15:44:29.181Z,12.87
2022-11-17T15:46:56.005Z,15.37
2022-11-17T15:49:22.794Z,14.10
2022-11-17T15:51:49.632Z,15.40
2022-11-17T15:54:20.349Z,14.80
2022-11-17T15:56:47.953Z,20.33
2022-11-17T15:59:15.084Z,12.63
2022-11-17T16:01:42.240Z,11.17
2022-11-17T16:04:13.251Z,9.27
2022-11-17T16:06:41.520Z,17.33
2022-11-17T16:09:08.707Z,14.63
2022-11-17T16:11:36.089Z,27.50
2022-11-17T16:14:03.192Z,11.93
2022-11-17T16:16:34.326Z,9.03
2022-11-17T16:19:01.402Z,8.27
2022-11-17T16:21:28.943Z,9.73
2022-11-17T16:23:57.108Z,8.10
2022-11-17T16:26:24.927Z,10.53
2022-11-17T16:29:03.132Z,8.77
2022-11-17T16:31:31.233Z,6.40
2022-11-17T16:33:59.367Z,9.60
2022-11-17T16:36:30.075Z,7.33
2022-11-17T16:39:04.926Z,5.73
2022-11-17T16:41:33.427Z,5.93
2022-11-17T16:44:00.688Z,7.43
2022-11-17T16:46:31.835Z,8.13
2022-11-17T16:49:03.145Z,9.20
2022-11-17T16:51:30.146Z,6.20
2022-11-17T16:53:58.213Z,7.50
2022-11-17T16:56:25.042Z,9.13
2022-11-17T16:58:52.207Z,7.30
2022-11-17T17:01:20.211Z,8.53
2022-11-17T17:03:47.168Z,10.93
2022-11-17T17:06:15.555Z,9.83
2022-11-17T17:08:42.415Z,6.93
2022-11-17T17:11:13.399Z,11.83
2022-11-17T17:13:40.774Z,9.80
2022-11-17T17:16:12.220Z,8.63
2022-11-17T17:18:39.562Z,12.17
2022-11-17T17:21:07.027Z,14.47
2022-11-17T17:23:34.955Z,12.53
2022-11-17T17:26:02.390Z,15.00
2022-11-17T17:28:29.912Z,22.17
2022-11-17T17:30:56.688Z,22.17
2022-11-17T17:33:23.637Z,15.13
2022-11-17T17:35:50.479Z,12.30
2022-11-17T17:38:17.728Z,13.33
2022-11-17T17:40:44.491Z,10.87
2022-11-17T17:43:11.320Z,12.10
2022-11-17T17:45:38.116Z,9.07
2022-11-17T17:48:05.451Z,12.60
2022-11-17T17:50:32.342Z,14.53
2022-11-17T17:52:59.112Z,13.33
2022-11-17T17:55:26.498Z,11.40
2022-11-17T17:57:53.293Z,11.90
2022-11-17T18:00:20.328Z,11.33
2022-11-17T18:02:47.205Z,10.20
2022-11-17T18:05:14.147Z,24.27
2022-11-17T18:07:41.005Z,17.63
2022-11-17T18:10:08.120Z,15.00
2022-11-17T18:12:34.890Z,9.03
2022-11-17T18:15:02.994Z,14.10
2022-11-17T18:17:29.793Z,15.30
2022-11-17T18:19:57.183Z,14.83
2022-11-17T18:22:24.263Z,16.83
2022-11-17T18:24:53.003Z,20.07
2022-11-17T18:27:22.775Z,58.20
2022-11-17T18:29:50.181Z,31.50
2022-11-17T18:32:16.949Z,12.70
2022-11-17T18:34:43.731Z,14.23
2022-11-17T18:37:10.635Z,13.13
2022-11-17T18:39:38.824Z,17.67
2022-11-17T18:42:05.726Z,18.07
2022-11-17T18:44:32.538Z,20.13
2022-11-17T18:47:02.716Z,19.13
2022-11-17T18:49:30.412Z,19.40
2022-11-17T18:51:57.204Z,26.87
2022-11-17T18:54:24.139Z,20.87
2022-11-17T18:56:50.984Z,36.57
2022-11-17T18:59:18.780Z,72.80
2022-11-17T19:01:45.928Z,19.70
2022-11-17T19:04:13.937Z,17.30
2022-11-17T19:06:41.370Z,19.70
2022-11-17T19:09:08.684Z,30.47
2022-11-17T19:11:35.734Z,37.83
2022-11-17T19:14:03.217Z,43.77
2022-11-17T19:16:30.283Z,32.17
2022-11-17T19:18:57.263Z,22.10
2022-11-17T19:21:28.676Z,21.00
2022-11-17T19:23:57.387Z,26.53
2022-11-17T19:26:25.832Z,24.17
2022-11-17T19:29:00.261Z,22.37
2022-11-17T19:31:27.127Z,22.53
2022-11-17T19:33:54.632Z,19.67
2022-11-17T19:36:23.215Z,18.13
2022-11-17T19:38:51.197Z,15.40
2022-11-17T19:41:19.636Z,24.20
2022-11-17T19:43:46.656Z,23.33
2022-11-17T19:46:14.768Z,22.33
2022-11-17T19:48:41.968Z,18.53
2022-11-17T19:51:16.584Z,15.20
2022-11-17T19:53:43.627Z,18.27
2022-11-17T19:56:10.513Z,14.27
2022-11-17T19:58:37.610Z,14.63
2022-11-17T20:01:08.818Z,17.87
2022-11-17T20:03:35.941Z,24.00
2022-11-17T20:06:03.151Z,13.90
2022-11-17T20:08:30.153Z,15.43
2022-11-17T20:11:13.684Z,18.67
2022-11-17T20:13:41.566Z,21.90
2022-11-17T20:16:12.228Z,26.90
2022-11-17T20:18:39.838Z,23.17
2022-11-17T20:21:06.935Z,22.27
2022-11-17T20:23:35.002Z,21.83
2022-11-17T20:26:09.264Z,25.13
2022-11-17T20:28:36.869Z,25.20
2022-11-17T20:31:13.295Z,22.77
2022-11-17T20:33:41.091Z,18.57
2022-11-17T20:36:08.997Z,17.03
2022-11-17T20:38:36.338Z,15.37
2022-11-17T20:41:03.661Z,14.60
2022-11-17T20:43:30.907Z,17.87
2022-11-17T20:45:58.525Z,16.13
2022-11-17T20:48:25.612Z,16.83
2022-11-17T20:51:11.699Z,14.73
2022-11-17T20:53:38.883Z,17.27
2022-11-17T20:56:06.753Z,20.70
2022-11-17T20:58:33.956Z,22.37
2022-11-17T21:01:21.456Z,28.27
2022-11-17T21:03:48.535Z,20.03
2022-11-17T21:06:15.726Z,22.57
2022-11-17T21:08:43.031Z,23.70
2022-11-17T21:11:11.416Z,18.03
2022-11-17T21:13:38.575Z,16.97
2022-11-17T21:16:08.328Z,20.33
2022-11-17T21:18:36.074Z,14.90
2022-11-17T21:21:05.491Z,14.60
2022-11-17T21:23:32.506Z,17.37
2022-11-17T21:26:02.744Z,17.83
2022-11-17T21:28:29.629Z,17.63
2022-11-17T21:31:02.341Z,19.83
2022-11-17T21:33:29.215Z,16.50
2022-11-17T21:36:00.630Z,16.50
2022-11-17T21:38:28.086Z,23.47
2022-11-17T21:40:54.909Z,22.63
2022-11-17T21:43:21.732Z,21.23
2022-11-17T21:45:48.618Z,20.37
2022-11-17T21:48:15.451Z,18.27
2022-11-17T21:50:45.279Z,22.43
2022-11-17T21:53:12.321Z,19.73
2022-11-17T21:55:39.139Z,19.93
2022-11-17T21:58:05.971Z,23.20
2022-11-17T22:00:33.070Z,17.47
2022-11-17T22:03:00.009Z,20.07
2022-11-17T22:05:26.754Z,19.80
2022-11-17T22:07:53.597Z,19.47
2022-11-17T22:10:20.418Z,21.87
2022-11-17T22:12:47.278Z,20.17
2022-11-17T22:15:14.061Z,15.97
2022-11-17T22:17:40.906Z,16.37
2022-11-17T22:20:08.223Z,15.73
2022-11-17T22:22:34.975Z,14.93
2022-11-17T22:25:22.887Z,23.43
2022-11-17T22:27:48.713Z,18.87
2022-11-17T22:30:16.215Z,18.00
2022-11-17T22:32:45.455Z,17.10
2022-11-17T22:35:12.431Z,19.73
2022-11-17T22:37:39.221Z,22.10
2022-11-17T22:40:06.261Z,22.43
2022-11-17T22:42:33.282Z,23.03
2022-11-17T22:45:00.541Z,20.17
2022-11-17T22:47:27.390Z,22.30
2022-11-17T22:49:54.641Z,16.33
2022-11-17T22:52:21.431Z,17.47
2022-11-17T22:54:48.245Z,15.13
2022-11-17T22:57:15.066Z,17.23
2022-11-17T22:59:41.984Z,17.23
2022-11-17T23:02:09.024Z,14.47
2022-11-17T23:04:36.743Z,14.70
2022-11-17T23:07:03.628Z,12.83
2022-11-17T23:09:30.492Z,16.83
2022-11-17T23:11:57.818Z,12.77
2022-11-17T23:14:24.665Z,35.00
2022-11-17T23:16:51.862Z,22.40
2022-11-17T23:19:18.844Z,16.13
2022-11-17T23:21:46.425Z,12.37
2022-11-17T23:24:14.951Z,15.07
2022-11-17T23:26:42.285Z,13.83
2022-11-17T23:29:09.585Z,13.20
2022-11-17T23:31:36.624Z,13.90
2022-11-17T23:34:03.630Z,13.37
2022-11-17T23:36:30.529Z,14.80
2022-11-17T23:38:57.917Z,13.87
2022-11-17T23:41:24.746Z,15.47
2022-11-17T23:43:52.539Z,12.80
2022-11-17T23:46:20.578Z,14.93
2022-11-17T23:48:47.566Z,18.60
2022-11-17T23:51:16.072Z,18.83
2022-11-17T23:53:42.976Z,10.97
2022-11-17T23:56:10.253Z,12.70
2022-11-17T23:58:37.561Z,10.63
